Time;durP1;ratioP1;P1;durP2;ratioP2;P2;SDS_P1;SDS_P2;PMS_P1;PMS_P2;Temp;Humidity;BMP_temperature;BMP_pressure;BME280_temperature;BME280_humidity;BME280_pressure;Samples;Min_cycle;Max_cycle;Signal;HPM_P1;HPM_P2
2021/12/07 00:02:12;;;;;;;6.20;2.40;;;12.30;99.90;;;;;;5004897;28;20194;-65
2021/12/07 00:04:40;;;;;;;16.77;3.40;;;12.30;99.90;;;;;;5005052;28;20189;-65
2021/12/07 00:07:07;;;;;;;17.03;3.07;;;12.30;99.90;;;;;;5004982;28;20272;-65
2021/12/07 00:09:35;;;;;;;6.70;2.70;;;12.30;99.90;;;;;;4987480;28;20272;-66
2021/12/07 00:12:04;;;;;;;11.43;2.53;;;12.20;99.90;;;;;;5006395;28;20216;-66
2021/12/07 00:14:37;;;;;;;10.80;3.43;;;12.20;99.90;;;;;;4991142;28;20211;-65
2021/12/07 00:17:04;;;;;;;11.07;2.90;;;12.20;99.90;;;;;;5007726;28;20303;-65
2021/12/07 00:19:32;;;;;;;16.20;3.03;;;12.20;99.90;;;;;;5009775;28;20216;-65
2021/12/07 00:21:58;;;;;;;12.43;2.80;;;12.10;99.90;;;;;;5009222;28;20268;-65
2021/12/07 00:24:27;;;;;;;14.30;2.80;;;12.10;99.90;;;;;;5009141;28;20197;-65
2021/12/07 00:26:55;;;;;;;12.37;2.90;;;12.10;99.90;;;;;;5003609;28;20641;-65
2021/12/07 00:29:21;;;;;;;10.77;3.00;;;12.10;99.90;;;;;;5008996;28;20553;-65
2021/12/07 00:32:04;;;;;;;13.20;2.93;;;12.10;99.90;;;;;;5008332;28;20197;-64
2021/12/07 00:36:59;;;;;;;9.13;2.70;;;12.10;99.90;;;;;;5008045;28;20790;-64
2021/12/07 00:39:26;;;;;;;12.73;3.07;;;12.10;99.90;;;;;;5008231;28;20213;-64
2021/12/07 00:41:55;;;;;;;14.57;2.93;;;12.10;99.90;;;;;;4991002;28;20280;-65
2021/12/07 00:44:24;;;;;;;12.57;2.87;;;12.00;99.90;;;;;;5008305;28;20661;-65
2021/12/07 00:46:53;;;;;;;12.80;3.50;;;12.00;99.90;;;;;;5007978;28;20197;-65
2021/12/07 00:49:19;;;;;;;13.63;3.03;;;12.00;99.90;;;;;;5009425;28;20189;-65
2021/12/07 00:51:45;;;;;;;21.47;3.50;;;12.00;99.90;;;;;;5008271;28;20279;-66
2021/12/07 00:54:14;;;;;;;16.73;2.90;;;12.10;99.90;;;;;;5006437;28;20209;-65
2021/12/07 00:56:42;;;;;;;13.97;2.90;;;12.00;99.90;;;;;;5007645;28;20988;-65
2021/12/07 00:59:09;;;;;;;18.20;3.03;;;12.00;99.90;;;;;;5007640;28;20250;-64
2021/12/07 01:01:35;;;;;;;15.30;3.07;;;12.00;99.90;;;;;;5007999;28;20215;-64
2021/12/07 01:04:02;;;;;;;16.53;3.00;;;12.00;99.90;;;;;;5006748;28;20243;-65
2021/12/07 01:06:44;;;;;;;15.60;2.73;;;12.00;99.90;;;;;;5007387;28;20193;-64
2021/12/07 01:25:40;;;;;;;19.97;4.17;;;12.00;99.90;;;;;;5038745;28;20757;-65
2021/12/07 01:28:33;;;;;;;18.60;4.00;;;12.00;99.90;;;;;;4988919;28;20208;-65
2021/12/07 01:31:18;;;;;;;21.07;4.40;;;12.00;99.90;;;;;;5017739;28;20247;-65
2021/12/07 01:45:08;;;;;;;18.07;5.13;;;12.10;99.90;;;;;;5001416;28;20193;-65
2021/12/07 01:50:33;;;;;;;21.27;5.03;;;12.20;99.90;;;;;;5006619;28;20204;-65
2021/12/07 01:59:32;;;;;;;24.27;4.90;;;12.30;99.90;;;;;;5006701;28;22312;-64
2021/12/07 02:00:56;;;;;;;21.90;5.33;;;12.30;99.90;;;;;;5000294;28;20627;-64
2021/12/07 02:03:23;;;;;;;31.77;5.40;;;12.40;99.90;;;;;;5006333;28;20188;-65
2021/12/07 02:05:50;;;;;;;30.87;5.47;;;12.60;99.90;;;;;;5004937;28;20220;-66
2021/12/07 02:08:16;;;;;;;24.53;5.13;;;12.80;99.90;;;;;;5004589;28;20648;-65
2021/12/07 02:10:43;;;;;;;24.27;4.90;;;13.10;99.90;;;;;;5021146;28;20197;-65
2021/12/07 02:14:14;;;;;;;25.17;6.10;;;13.30;99.90;;;;;;4988827;28;20227;-64
2021/12/07 02:16:12;;;;;;;21.70;4.40;;;13.40;99.90;;;;;;5006995;28;20250;-65
2021/12/07 02:18:39;;;;;;;26.90;4.83;;;13.50;99.90;;;;;;5007150;28;20220;-65
2021/12/07 02:21:24;;;;;;;25.50;4.30;;;13.50;99.90;;;;;;5004423;28;20185;-64
2021/12/07 02:23:52;;;;;;;22.97;4.50;;;13.50;99.90;;;;;;5004457;28;20263;-64
2021/12/07 02:26:20;;;;;;;21.37;4.90;;;13.50;99.90;;;;;;5004722;28;20173;-65
2021/12/07 02:28:49;;;;;;;20.20;4.50;;;13.60;99.90;;;;;;5005706;28;20196;-66
2021/12/07 02:31:16;;;;;;;19.90;4.50;;;13.60;99.90;;;;;;5005546;28;20199;-66
2021/12/07 02:33:42;;;;;;;21.57;4.47;;;13.60;99.90;;;;;;5018009;28;20224;-64
2021/12/07 02:36:09;;;;;;;11.53;3.73;;;13.70;99.90;;;;;;5036155;28;20707;-66
2021/12/07 02:38:36;;;;;;;17.50;4.30;;;13.80;99.90;;;;;;5006301;28;20749;-65
2021/12/07 02:41:03;;;;;;;16.13;4.37;;;13.80;99.90;;;;;;5005276;28;20789;-66
2021/12/07 02:43:30;;;;;;;20.73;4.10;;;14.00;99.90;;;;;;5006772;28;20355;-64
2021/12/07 02:45:56;;;;;;;18.87;4.77;;;14.00;99.90;;;;;;5006635;28;20632;-65
2021/12/07 02:48:24;;;;;;;19.73;4.80;;;14.10;99.90;;;;;;5005861;28;20735;-65
2021/12/07 02:50:51;;;;;;;17.33;4.17;;;14.20;99.90;;;;;;4988248;28;20248;-66
2021/12/07 02:53:22;;;;;;;20.20;4.60;;;14.30;99.90;;;;;;5021299;28;20196;-65
2021/12/07 02:55:50;;;;;;;16.53;4.53;;;14.30;99.90;;;;;;5008056;28;20224;-65
2021/12/07 02:58:18;;;;;;;21.30;4.70;;;14.40;99.90;;;;;;5005377;28;20299;-65
2021/12/07 03:00:54;;;;;;;15.67;4.07;;;14.50;99.90;;;;;;5005305;28;20184;-65
2021/12/07 03:03:20;;;;;;;21.13;3.97;;;14.50;99.90;;;;;;5013533;28;20189;-64
2021/12/07 03:27:24;;;;;;;26.57;5.53;;;14.70;99.90;;;;;;5007647;28;20972;-64
2021/12/07 03:29:51;;;;;;;14.30;4.00;;;14.80;99.90;;;;;;5005438;28;20227;-65
2021/12/07 03:32:17;;;;;;;17.70;4.93;;;14.80;99.90;;;;;;5005034;28;20189;-65
2021/12/07 03:34:43;;;;;;;14.10;4.20;;;14.80;99.90;;;;;;5005468;28;20303;-65
2021/12/07 03:37:09;;;;;;;26.23;4.53;;;14.80;99.90;;;;;;5035517;28;20288;-65
2021/12/07 03:39:36;;;;;;;23.90;4.03;;;14.80;99.90;;;;;;5002905;28;20212;-65
2021/12/07 03:42:02;;;;;;;18.07;4.60;;;14.80;99.90;;;;;;5005540;28;20697;-64
2021/12/07 03:44:30;;;;;;;18.80;4.27;;;14.80;99.90;;;;;;5005937;28;20642;-65
2021/12/07 03:46:57;;;;;;;14.43;4.47;;;14.80;99.90;;;;;;5008195;28;20195;-65
2021/12/07 03:49:23;;;;;;;31.20;6.53;;;14.80;99.90;;;;;;5008231;28;20192;-64
2021/12/07 03:51:49;;;;;;;18.90;4.70;;;14.80;99.90;;;;;;5013178;28;20641;-65
2021/12/07 03:54:15;;;;;;;20.00;4.83;;;14.80;99.90;;;;;;5024507;28;20223;-65
2021/12/07 03:56:42;;;;;;;20.43;4.77;;;14.80;99.90;;;;;;5009048;28;20196;-64
2021/12/07 03:59:08;;;;;;;17.40;4.93;;;14.80;99.90;;;;;;5008833;28;20232;-65
2021/12/07 04:01:34;;;;;;;11.50;4.30;;;14.90;99.90;;;;;;5009190;28;20196;-65
2021/12/07 04:04:02;;;;;;;15.37;5.07;;;15.00;99.90;;;;;;5009587;28;20193;-66
2021/12/07 04:06:29;;;;;;;19.53;5.30;;;14.90;99.90;;;;;;5009379;28;20193;-65
2021/12/07 04:08:55;;;;;;;18.00;4.73;;;14.90;99.90;;;;;;5009558;28;20239;-66
2021/12/07 04:11:23;;;;;;;17.63;4.60;;;15.00;99.90;;;;;;5006556;28;20200;-65
2021/12/07 04:13:49;;;;;;;20.33;4.83;;;15.00;99.90;;;;;;5005565;28;20192;-65
2021/12/07 04:16:18;;;;;;;15.53;4.43;;;15.00;99.90;;;;;;5006204;28;20188;-64
2021/12/07 04:18:45;;;;;;;15.27;4.63;;;15.00;99.90;;;;;;5023373;28;20713;-65
2021/12/07 04:21:11;;;;;;;15.77;4.70;;;15.00;99.90;;;;;;5008753;28;20771;-64
2021/12/07 04:23:38;;;;;;;14.73;4.33;;;15.00;99.90;;;;;;5008883;28;20189;-65
2021/12/07 04:26:10;;;;;;;14.17;4.77;;;15.00;99.90;;;;;;5021361;28;20802;-65
2021/12/07 04:28:37;;;;;;;17.17;4.57;;;15.10;99.90;;;;;;5009063;28;20223;-65
2021/12/07 04:31:04;;;;;;;16.27;4.63;;;15.20;99.90;;;;;;5005788;28;20181;-64
2021/12/07 04:33:31;;;;;;;17.87;5.10;;;15.20;99.90;;;;;;5008981;28;20895;-65
2021/12/07 04:35:59;;;;;;;16.20;4.97;;;15.20;99.90;;;;;;5007673;28;20196;-63
2021/12/07 04:38:26;;;;;;;23.20;5.13;;;15.20;99.90;;;;;;5008516;28;20219;-64
2021/12/07 04:40:54;;;;;;;15.37;4.50;;;15.20;99.90;;;;;;5006552;28;20185;-64
2021/12/07 04:43:21;;;;;;;11.80;4.53;;;15.20;99.90;;;;;;5007373;28;20224;-66
2021/12/07 04:49:22;;;;;;;15.87;5.43;;;15.20;99.90;;;;;;5008230;28;20196;-66
2021/12/07 04:59:54;;;;;;;11.67;4.47;;;15.40;99.90;;;;;;5008782;28;20231;-66
2021/12/07 05:02:20;;;;;;;18.03;4.97;;;15.40;99.90;;;;;;5007390;28;20185;-66
2021/12/07 05:04:46;;;;;;;17.43;4.80;;;15.30;99.90;;;;;;5040233;28;20653;-66
2021/12/07 05:07:22;;;;;;;15.30;4.60;;;15.30;99.90;;;;;;5006912;28;20196;-66
2021/12/07 05:14:45;;;;;;;14.83;5.70;;;15.30;99.90;;;;;;5023100;28;20684;-66
2021/12/07 05:17:24;;;;;;;18.40;4.53;;;15.30;99.90;;;;;;5039691;28;20219;-66
2021/12/07 05:38:55;;;;;;;16.87;4.60;;;15.50;99.90;;;;;;5007318;28;20208;-66
2021/12/07 05:41:24;;;;;;;16.07;5.57;;;15.50;99.90;;;;;;5030231;28;20263;-67
2021/12/07 05:43:51;;;;;;;16.67;4.60;;;15.60;99.90;;;;;;5007385;28;20263;-67
2021/12/07 05:46:18;;;;;;;17.93;4.87;;;15.60;99.90;;;;;;5008074;28;20651;-67
2021/12/07 05:48:44;;;;;;;14.80;4.40;;;15.60;99.90;;;;;;5006917;28;20188;-67
2021/12/07 05:51:10;;;;;;;24.07;4.90;;;15.60;99.90;;;;;;4989142;28;20216;-65
2021/12/07 05:53:37;;;;;;;20.70;5.23;;;15.70;99.90;;;;;;5039039;28;20201;-66
2021/12/07 05:56:04;;;;;;;9.77;4.10;;;15.70;99.90;;;;;;5006829;28;20272;-65
2021/12/07 05:58:31;;;;;;;20.67;3.90;;;15.80;99.90;;;;;;5007553;28;20220;-66
2021/12/07 06:00:57;;;;;;;16.40;4.70;;;15.90;99.90;;;;;;5020884;28;20196;-65
2021/12/07 06:03:28;;;;;;;17.07;4.50;;;15.90;99.90;;;;;;5005303;28;20188;-65
2021/12/07 06:05:55;;;;;;;19.83;4.20;;;15.90;99.90;;;;;;5002175;28;20665;-64
2021/12/07 06:08:22;;;;;;;15.80;4.47;;;16.00;99.90;;;;;;5001143;28;20200;-65
2021/12/07 06:10:48;;;;;;;14.73;4.30;;;16.10;99.90;;;;;;5005085;28;20658;-66
2021/12/07 06:13:15;;;;;;;16.50;4.23;;;16.20;99.90;;;;;;5007279;28;20655;-64
2021/12/07 06:15:44;;;;;;;19.10;4.17;;;16.20;99.90;;;;;;5007264;28;20213;-65
2021/12/07 06:18:11;;;;;;;18.87;4.57;;;16.30;99.90;;;;;;5006666;28;20339;-65
2021/12/07 06:20:40;;;;;;;18.50;4.53;;;16.30;99.90;;;;;;5007443;28;20189;-64
2021/12/07 06:23:13;;;;;;;14.17;4.30;;;16.40;99.90;;;;;;5038915;28;20864;-65
2021/12/07 06:25:40;;;;;;;19.00;4.53;;;16.50;99.90;;;;;;5005254;28;20188;-64
2021/12/07 06:28:08;;;;;;;13.07;4.53;;;16.50;99.90;;;;;;5001796;28;20219;-65
2021/12/07 06:30:35;;;;;;;19.93;4.67;;;16.60;99.90;;;;;;5017337;28;20355;-68
2021/12/07 06:33:01;;;;;;;23.40;5.40;;;16.70;99.90;;;;;;5004412;28;20193;-64
2021/12/07 06:35:27;;;;;;;24.17;4.60;;;16.70;99.90;;;;;;5005653;28;20266;-65
2021/12/07 06:37:54;;;;;;;12.40;4.20;;;16.80;99.90;;;;;;5004997;28;20224;-64
2021/12/07 06:40:20;;;;;;;15.17;4.03;;;16.80;99.90;;;;;;5001938;28;20833;-64
2021/12/07 06:42:47;;;;;;;23.30;4.50;;;16.80;99.90;;;;;;5002143;28;20189;-66
2021/12/07 06:45:13;;;;;;;23.60;4.90;;;16.80;99.90;;;;;;5003324;28;20962;-66
2021/12/07 06:47:40;;;;;;;24.77;5.07;;;16.90;99.90;;;;;;5005279;28;20189;-67
2021/12/07 06:50:10;;;;;;;14.23;4.17;;;17.00;99.90;;;;;;5037306;28;20196;-68
2021/12/07 06:52:40;;;;;;;14.73;4.30;;;17.00;99.90;;;;;;5001088;28;20319;-65
2021/12/07 06:55:08;;;;;;;19.23;4.30;;;17.00;99.90;;;;;;5007861;28;20201;-66
2021/12/07 06:57:34;;;;;;;18.40;4.67;;;17.00;99.90;;;;;;5006644;28;20211;-66
2021/12/07 07:00:03;;;;;;;17.20;4.20;;;17.10;99.90;;;;;;5004679;28;20630;-65
2021/12/07 07:02:29;;;;;;;16.17;3.93;;;17.10;99.90;;;;;;5004305;28;20645;-66
2021/12/07 07:04:57;;;;;;;17.93;4.77;;;17.20;99.90;;;;;;5006390;28;20192;-65
2021/12/07 07:07:24;;;;;;;24.33;4.50;;;17.30;99.90;;;;;;5005146;28;20181;-66
2021/12/07 07:09:51;;;;;;;19.60;4.23;;;17.30;99.90;;;;;;5001153;28;20203;-68
2021/12/07 07:12:18;;;;;;;18.40;4.60;;;17.30;99.90;;;;;;5002118;28;20207;-66
2021/12/07 07:14:46;;;;;;;27.30;5.20;;;17.40;99.90;;;;;;5003018;28;20661;-66
2021/12/07 07:17:14;;;;;;;18.73;4.40;;;17.50;99.90;;;;;;5005413;28;20193;-67
2021/12/07 07:19:40;;;;;;;27.90;4.33;;;17.50;99.90;;;;;;5004988;28;20296;-66
2021/12/07 07:22:07;;;;;;;18.37;4.37;;;17.60;99.90;;;;;;5004738;28;20266;-67
2021/12/07 07:24:34;;;;;;;24.97;4.50;;;17.70;99.90;;;;;;5004081;28;20649;-66
2021/12/07 07:27:01;;;;;;;27.10;5.40;;;17.80;99.90;;;;;;5002930;28;20197;-67
2021/12/07 07:29:28;;;;;;;24.27;4.93;;;17.90;99.90;;;;;;5005841;28;20222;-67
2021/12/07 07:31:54;;;;;;;19.20;4.60;;;17.80;99.90;;;;;;5002893;28;20192;-66
2021/12/07 07:34:22;;;;;;;20.93;4.87;;;17.80;99.90;;;;;;5003858;28;20185;-66
2021/12/07 07:36:48;;;;;;;16.67;4.57;;;17.80;99.90;;;;;;5005263;28;20258;-67
2021/12/07 07:39:15;;;;;;;24.27;5.10;;;17.90;99.90;;;;;;5003006;28;20205;-67
2021/12/07 07:41:41;;;;;;;35.47;5.30;;;17.90;99.90;;;;;;5004340;28;20216;-66
2021/12/07 07:44:08;;;;;;;20.73;4.07;;;17.90;99.90;;;;;;5004765;28;20640;-65
2021/12/07 07:46:34;;;;;;;28.17;5.37;;;18.00;99.90;;;;;;5001336;28;20664;-65
2021/12/07 07:49:02;;;;;;;21.87;4.90;;;18.00;99.90;;;;;;5018026;28;20185;-65
2021/12/07 07:51:29;;;;;;;25.23;5.20;;;18.10;99.90;;;;;;5000601;28;20275;-66
2021/12/07 07:53:56;;;;;;;30.17;5.27;;;18.00;99.90;;;;;;5036192;28;20192;-66
2021/12/07 07:56:23;;;;;;;22.00;4.97;;;18.10;99.90;;;;;;5019242;28;20189;-66
2021/12/07 07:58:49;;;;;;;32.37;5.10;;;18.10;99.90;;;;;;5004718;28;20212;-64
2021/12/07 08:01:15;;;;;;;20.87;4.33;;;18.10;99.90;;;;;;5000846;28;20212;-64
2021/12/07 08:03:42;;;;;;;28.40;5.00;;;18.10;99.90;;;;;;5017481;28;20667;-68
2021/12/07 08:06:08;;;;;;;21.47;4.97;;;18.20;99.90;;;;;;4994902;28;20288;-64
2021/12/07 08:08:34;;;;;;;19.70;4.67;;;18.20;99.90;;;;;;5004285;28;20270;-65
2021/12/07 08:11:01;;;;;;;24.07;4.80;;;18.30;99.90;;;;;;5014707;28;20201;-66
2021/12/07 08:13:30;;;;;;;29.17;5.63;;;18.20;99.90;;;;;;5015147;28;20638;-66
2021/12/07 08:15:57;;;;;;;23.40;5.07;;;18.30;99.90;;;;;;4984050;28;20216;-66
2021/12/07 08:18:23;;;;;;;25.43;6.17;;;18.40;99.90;;;;;;5001494;28;20582;-66
2021/12/07 08:20:50;;;;;;;18.87;4.90;;;18.40;99.90;;;;;;5035318;28;20366;-66
2021/12/07 08:23:17;;;;;;;26.70;5.27;;;18.40;99.90;;;;;;5001122;28;20258;-66
2021/12/07 08:25:49;;;;;;;24.17;4.80;;;18.40;99.90;;;;;;5003607;28;20193;-67
2021/12/07 08:28:19;;;;;;;28.47;5.80;;;18.40;99.90;;;;;;5002727;28;20236;-65
2021/12/07 08:30:48;;;;;;;27.13;5.40;;;18.40;99.90;;;;;;5006533;28;20185;-66
2021/12/07 08:33:14;;;;;;;24.50;4.93;;;18.40;99.90;;;;;;5018124;28;20267;-66
2021/12/07 08:35:41;;;;;;;32.03;5.07;;;18.40;99.90;;;;;;5005537;28;20196;-65
2021/12/07 08:38:08;;;;;;;26.43;5.23;;;18.40;99.90;;;;;;4987720;28;20677;-66
2021/12/07 08:40:39;;;;;;;22.67;4.90;;;18.40;99.90;;;;;;5005519;28;20189;-66
2021/12/07 08:43:09;;;;;;;31.07;5.37;;;18.40;99.90;;;;;;5035779;28;20192;-66
2021/12/07 08:45:36;;;;;;;28.47;5.23;;;18.40;99.90;;;;;;5006586;28;20181;-66
2021/12/07 08:48:03;;;;;;;23.57;5.23;;;18.50;99.90;;;;;;5003534;28;20197;-66
2021/12/07 08:50:31;;;;;;;22.97;5.80;;;18.60;99.90;;;;;;5003312;28;20200;-66
2021/12/07 08:53:05;;;;;;;23.57;5.70;;;18.60;99.90;;;;;;5004320;28;20196;-66
2021/12/07 09:01:06;;;;;;;20.57;4.77;;;18.70;99.90;;;;;;5034686;28;20189;-66
2021/12/07 09:03:33;;;;;;;30.37;5.73;;;18.70;99.90;;;;;;5004064;28;20189;-66
2021/12/07 09:05:59;;;;;;;33.07;5.23;;;18.70;99.90;;;;;;5003977;28;20192;-66
2021/12/07 09:08:25;;;;;;;29.90;6.03;;;18.70;99.90;;;;;;5006533;28;20201;-66
2021/12/07 09:10:52;;;;;;;29.27;6.03;;;18.70;99.90;;;;;;5033990;28;20243;-66
2021/12/07 09:13:20;;;;;;;24.67;5.00;;;18.60;99.90;;;;;;5002239;28;20219;-66
2021/12/07 09:15:47;;;;;;;27.63;5.47;;;18.70;99.90;;;;;;5007324;28;20677;-66
2021/12/07 09:18:16;;;;;;;24.00;4.97;;;18.70;99.90;;;;;;5005416;28;20209;-66
2021/12/07 09:20:43;;;;;;;29.73;5.47;;;18.80;99.90;;;;;;5006723;28;20258;-66
2021/12/07 09:23:10;;;;;;;25.43;5.93;;;18.80;99.90;;;;;;5020027;28;20181;-67
2021/12/07 09:25:37;;;;;;;28.67;5.07;;;18.80;99.90;;;;;;5005607;28;20193;-67
2021/12/07 09:28:04;;;;;;;27.63;6.33;;;18.90;99.90;;;;;;5006082;28;20219;-67
2021/12/07 09:30:31;;;;;;;29.80;4.87;;;19.00;99.90;;;;;;5038110;28;20598;-67
2021/12/07 09:32:57;;;;;;;26.10;4.57;;;19.10;99.90;;;;;;5007139;28;20185;-67
2021/12/07 09:35:25;;;;;;;27.73;5.17;;;19.10;99.90;;;;;;4986769;28;20264;-67
2021/12/07 09:37:53;;;;;;;24.33;5.07;;;19.10;99.90;;;;;;5003225;28;20224;-67
2021/12/07 09:40:24;;;;;;;29.80;5.30;;;19.10;99.90;;;;;;5005168;28;20287;-66
2021/12/07 09:42:52;;;;;;;31.63;5.30;;;19.00;99.90;;;;;;5003932;28;20728;-67
2021/12/07 09:45:19;;;;;;;25.60;4.87;;;19.00;99.90;;;;;;5003470;28;20314;-67
2021/12/07 09:47:47;;;;;;;30.07;5.27;;;19.10;99.90;;;;;;5004483;28;20574;-67
2021/12/07 09:50:20;;;;;;;33.43;5.50;;;19.10;99.90;;;;;;5002605;28;20673;-67
2021/12/07 09:52:48;;;;;;;36.37;5.53;;;19.10;99.90;;;;;;5004024;28;20185;-67
2021/12/07 09:55:15;;;;;;;31.33;4.80;;;19.20;99.90;;;;;;4988560;28;20607;-66
2021/12/07 09:57:42;;;;;;;27.57;5.30;;;19.20;99.90;;;;;;5005172;28;20197;-66
2021/12/07 10:00:14;;;;;;;28.93;4.87;;;19.20;99.90;;;;;;5003602;28;20187;-67
2021/12/07 10:02:41;;;;;;;32.27;4.87;;;19.20;99.90;;;;;;5034941;28;20866;-66
2021/12/07 10:05:08;;;;;;;27.97;4.80;;;19.20;99.90;;;;;;5006507;28;20491;-67
2021/12/07 10:07:37;;;;;;;33.40;5.77;;;19.20;99.90;;;;;;5018543;28;20185;-66
2021/12/07 10:10:17;;;;;;;33.33;5.77;;;19.20;99.90;;;;;;5001662;28;20193;-67
2021/12/07 10:12:43;;;;;;;32.00;5.60;;;19.10;99.90;;;;;;5002777;28;20184;-66
2021/12/07 10:15:11;;;;;;;28.47;5.37;;;19.00;99.90;;;;;;5003961;28;20280;-66
2021/12/07 10:17:38;;;;;;;30.23;5.23;;;18.90;99.90;;;;;;5003734;28;20204;-66
2021/12/07 10:20:33;;;;;;;28.97;5.07;;;18.90;99.90;;;;;;5003953;28;20262;-67
2021/12/07 10:23:39;;;;;;;41.47;5.27;;;19.10;99.90;;;;;;5004884;28;20203;-66
2021/12/07 10:26:28;;;;;;;28.00;4.20;;;19.20;99.90;;;;;;5002642;28;20188;-66
2021/12/07 10:28:58;;;;;;;41.47;5.27;;;19.00;99.90;;;;;;5004901;28;20195;-66
2021/12/07 10:31:34;;;;;;;37.53;4.73;;;18.90;99.90;;;;;;5004963;28;20235;-66
2021/12/07 10:34:18;;;;;;;31.30;4.67;;;18.80;99.90;;;;;;5005642;28;20185;-66
2021/12/07 10:36:56;;;;;;;30.00;4.70;;;18.80;99.90;;;;;;5001842;28;20263;-66
2021/12/07 10:39:26;;;;;;;32.70;5.53;;;18.70;99.90;;;;;;5020737;28;20228;-67
2021/12/07 10:42:00;;;;;;;41.33;5.60;;;18.60;99.90;;;;;;5000884;28;20181;-67
2021/12/07 10:44:36;;;;;;;34.13;5.60;;;18.60;99.90;;;;;;5003872;28;20262;-67
2021/12/07 10:47:12;;;;;;;38.70;5.30;;;18.50;99.90;;;;;;5005751;28;20587;-67
2021/12/07 10:49:47;;;;;;;33.57;5.00;;;18.60;99.90;;;;;;5004082;28;20192;-67
2021/12/07 10:52:35;;;;;;;30.50;5.30;;;18.70;99.90;;;;;;5003456;28;20184;-67
2021/12/07 10:55:23;;;;;;;30.70;4.90;;;18.90;99.90;;;;;;5005300;28;20180;-67
2021/12/07 10:58:00;;;;;;;41.57;6.07;;;19.40;99.90;;;;;;5004529;28;20193;-67
2021/12/07 11:00:33;;;;;;;34.47;5.60;;;19.70;99.90;;;;;;5004229;28;20584;-66
2021/12/07 11:03:21;;;;;;;57.60;6.50;;;19.90;99.90;;;;;;5001132;28;20184;-67
2021/12/07 11:05:54;;;;;;;47.77;5.87;;;20.10;99.90;;;;;;5004427;28;20195;-67
2021/12/07 11:08:26;;;;;;;40.13;5.97;;;20.10;99.90;;;;;;5002796;28;20205;-66
2021/12/07 11:10:54;;;;;;;33.37;5.40;;;20.10;99.90;;;;;;5033265;28;20201;-67
2021/12/07 11:13:35;;;;;;;43.67;6.20;;;20.10;99.90;;;;;;5003616;28;20335;-66
2021/12/07 11:16:13;;;;;;;43.20;6.33;;;20.00;99.90;;;;;;5002042;28;20667;-66
2021/12/07 11:18:49;;;;;;;50.10;6.73;;;20.00;99.90;;;;;;5003263;28;20655;-66
2021/12/07 11:21:19;;;;;;;31.50;4.63;;;19.90;99.90;;;;;;5001909;28;20188;-66
2021/12/07 11:23:58;;;;;;;38.47;5.87;;;19.70;99.90;;;;;;5032382;28;20192;-66
2021/12/07 11:31:56;;;;;;;35.90;5.57;;;19.50;99.90;;;;;;5004759;28;20211;-67
2021/12/07 11:34:39;;;;;;;40.87;5.73;;;19.50;99.90;;;;;;5002722;28;20700;-67
2021/12/07 11:37:13;;;;;;;40.03;6.10;;;19.40;99.90;;;;;;5012477;28;20207;-67
2021/12/07 11:39:52;;;;;;;37.77;6.20;;;19.40;99.90;;;;;;5002734;28;20314;-67
2021/12/07 11:42:37;;;;;;;35.50;5.97;;;19.40;99.90;;;;;;5003145;28;20191;-66
2021/12/07 11:45:17;;;;;;;39.93;5.90;;;19.30;99.90;;;;;;5017052;28;20184;-67
2021/12/07 11:47:59;;;;;;;39.23;6.57;;;19.30;99.90;;;;;;5002833;28;20287;-66
2021/12/07 11:50:38;;;;;;;30.00;4.30;;;19.30;99.90;;;;;;5005298;28;20189;-66
2021/12/07 11:53:15;;;;;;;31.47;5.40;;;19.30;99.90;;;;;;5005894;28;20193;-66
2021/12/07 11:55:47;;;;;;;39.37;5.43;;;19.20;99.90;;;;;;5012444;28;20254;-65
2021/12/07 11:58:14;;;;;;;32.57;5.57;;;19.20;99.90;;;;;;4999666;28;20213;-67
2021/12/07 12:00:48;;;;;;;33.03;5.27;;;19.30;99.90;;;;;;5003637;28;20254;-66
2021/12/07 12:03:19;;;;;;;30.90;4.33;;;19.20;99.90;;;;;;5005253;28;20671;-67
2021/12/07 12:05:49;;;;;;;26.40;4.40;;;19.30;99.90;;;;;;5003731;28;20224;-66
2021/12/07 12:08:21;;;;;;;33.43;4.40;;;19.30;99.90;;;;;;5007495;28;20717;-66
2021/12/07 12:11:08;;;;;;;31.43;4.53;;;19.20;99.90;;;;;;4989828;28;20300;-66
2021/12/07 12:14:06;;;;;;;25.67;4.17;;;19.10;99.90;;;;;;5005948;28;20191;-66
2021/12/07 12:17:27;;;;;;;24.73;3.73;;;19.00;99.90;;;;;;5008746;28;20213;-66
2021/12/07 12:20:20;;;;;;;30.33;3.73;;;18.80;99.90;;;;;;5006368;28;20292;-66
2021/12/07 12:23:32;;;;;;;30.53;3.73;;;18.70;99.90;;;;;;5001996;28;20284;-66
2021/12/07 12:26:08;;;;;;;33.03;4.40;;;18.60;99.90;;;;;;5007710;28;20646;-66
2021/12/07 12:28:47;;;;;;;28.23;3.80;;;18.40;99.90;;;;;;5006699;28;20947;-66
2021/12/07 12:31:16;;;;;;;24.03;3.73;;;18.40;99.90;;;;;;5006916;28;20204;-66
2021/12/07 12:33:56;;;;;;;32.93;4.20;;;18.40;99.90;;;;;;5006536;28;20207;-66
2021/12/07 12:36:26;;;;;;;25.00;3.57;;;18.30;99.90;;;;;;5006726;28;21093;-66
2021/12/07 12:39:06;;;;;;;23.37;3.20;;;18.10;99.90;;;;;;5006632;28;20205;-67
2021/12/07 12:41:33;;;;;;;25.77;4.47;;;18.00;99.90;;;;;;5006522;28;20204;-66
2021/12/07 12:44:15;;;;;;;20.33;2.83;;;17.90;99.90;;;;;;5005724;28;20270;-66
2021/12/07 12:46:42;;;;;;;17.10;3.17;;;17.90;99.90;;;;;;5003113;28;20223;-66
2021/12/07 12:49:13;;;;;;;26.00;2.90;;;17.90;99.90;;;;;;5005673;28;20211;-66
2021/12/07 12:51:50;;;;;;;14.00;2.37;;;17.90;99.90;;;;;;4999217;28;20204;-66
2021/12/07 12:54:19;;;;;;;14.47;2.80;;;17.90;99.90;;;;;;5000926;28;20678;-66
2021/12/07 12:56:47;;;;;;;12.60;3.00;;;17.90;99.90;;;;;;5006068;28;20275;-66
2021/12/07 12:59:14;;;;;;;9.03;2.00;;;17.90;99.90;;;;;;5006633;28;20213;-66
2021/12/07 13:01:44;;;;;;;14.87;2.50;;;17.90;99.90;;;;;;5003694;28;20763;-66
2021/12/07 13:04:17;;;;;;;10.37;2.00;;;17.90;99.90;;;;;;5036258;28;20184;-66
2021/12/07 13:07:23;;;;;;;7.93;1.90;;;17.80;99.90;;;;;;5001863;28;20176;-67
2021/12/07 13:09:52;;;;;;;9.83;1.80;;;17.80;99.90;;;;;;5038076;28;20553;-66
2021/12/07 13:12:41;;;;;;;8.90;2.27;;;17.70;99.90;;;;;;5007784;28;20184;-66
2021/12/07 13:15:15;;;;;;;20.43;2.20;;;17.70;99.90;;;;;;5039121;28;20189;-65
2021/12/07 13:17:51;;;;;;;11.70;2.53;;;17.70;99.90;;;;;;5005131;28;20200;-66
2021/12/07 13:20:31;;;;;;;7.60;2.20;;;17.70;99.90;;;;;;5005956;28;20242;-66
2021/12/07 13:23:11;;;;;;;14.33;2.07;;;17.70;99.90;;;;;;5005660;28;20180;-66
2021/12/07 13:25:50;;;;;;;10.80;3.07;;;17.70;99.90;;;;;;5006360;28;20717;-66
2021/12/07 13:28:25;;;;;;;14.20;3.33;;;17.70;99.90;;;;;;5006948;28;20670;-66
2021/12/07 13:31:09;;;;;;;7.90;2.77;;;17.60;99.90;;;;;;5005692;28;20188;-66
2021/12/07 13:33:47;;;;;;;14.13;2.00;;;17.50;99.90;;;;;;5004666;28;20189;-66
2021/12/07 13:36:40;;;;;;;8.53;1.97;;;17.50;99.90;;;;;;5006882;28;20241;-66
2021/12/07 13:39:45;;;;;;;9.57;2.10;;;17.40;99.90;;;;;;5001756;28;20279;-66
2021/12/07 13:42:17;;;;;;;6.67;2.20;;;17.40;99.90;;;;;;4992007;28;20192;-66
2021/12/07 13:44:51;;;;;;;9.03;2.23;;;17.20;99.90;;;;;;5002619;28;20721;-66
2021/12/07 13:47:35;;;;;;;8.60;2.03;;;17.20;99.90;;;;;;5006086;28;20888;-66
2021/12/07 13:50:13;;;;;;;11.10;2.10;;;17.10;99.90;;;;;;5005558;28;21041;-67
2021/12/07 13:52:49;;;;;;;8.23;1.90;;;17.00;99.90;;;;;;5036490;28;20192;-66
2021/12/07 13:55:32;;;;;;;8.27;2.10;;;17.00;99.90;;;;;;5005657;28;20192;-66
2021/12/07 13:58:02;;;;;;;7.97;1.70;;;16.90;99.90;;;;;;5019098;28;20200;-66
2021/12/07 14:00:35;;;;;;;9.20;2.23;;;16.90;99.90;;;;;;5005396;28;20279;-66
2021/12/07 14:03:08;;;;;;;8.70;2.20;;;16.80;99.90;;;;;;4989257;28;20234;-66
2021/12/07 14:05:42;;;;;;;9.53;2.47;;;16.80;99.90;;;;;;5004640;28;20187;-67
2021/12/07 14:08:15;;;;;;;7.90;1.87;;;16.80;99.90;;;;;;5004085;28;20185;-66
2021/12/07 14:10:50;;;;;;;5.20;1.83;;;16.80;99.90;;;;;;5001638;28;20279;-66
2021/12/07 14:13:19;;;;;;;7.67;1.97;;;16.80;99.90;;;;;;5003263;28;20274;-66
2021/12/07 14:15:50;;;;;;;6.30;1.90;;;16.70;99.90;;;;;;5003749;28;20201;-67
2021/12/07 14:18:22;;;;;;;6.87;2.17;;;16.70;99.90;;;;;;5004427;28;20240;-66
2021/12/07 14:20:59;;;;;;;7.20;1.90;;;16.60;99.90;;;;;;5004776;28;20691;-66
2021/12/07 14:23:37;;;;;;;7.00;2.00;;;16.60;99.90;;;;;;5006025;28;20226;-66
2021/12/07 14:26:25;;;;;;;10.37;2.43;;;16.60;99.90;;;;;;5017962;28;20584;-67
2021/12/07 14:29:05;;;;;;;14.77;2.50;;;16.50;99.90;;;;;;4999047;28;20891;-66
2021/12/07 14:31:44;;;;;;;12.93;2.83;;;16.50;99.90;;;;;;5000611;28;20269;-66
2021/12/07 14:34:24;;;;;;;8.73;2.13;;;16.50;99.90;;;;;;5003596;28;20205;-66
2021/12/07 14:37:07;;;;;;;12.93;2.43;;;16.50;99.90;;;;;;5003812;28;20298;-67
2021/12/07 14:39:40;;;;;;;10.70;2.77;;;16.50;99.90;;;;;;5017174;28;20224;-66
2021/12/07 14:42:17;;;;;;;13.50;2.80;;;16.50;99.90;;;;;;5000982;28;20197;-66
2021/12/07 14:44:58;;;;;;;14.17;3.30;;;16.40;99.90;;;;;;5001691;28;20185;-66
2021/12/07 14:47:27;;;;;;;17.60;4.03;;;16.40;99.90;;;;;;5004481;28;20216;-66